Time;durP1;ratioP1;P1;durP2;ratioP2;P2;SDS_P1;SDS_P2;PMS_P1;PMS_P2;Temp;Humidity;BMP_temperature;BMP_pressure;BME280_temperature;BME280_humidity;BME280_pressure;Samples;Min_cycle;Max_cycle;Signal;HPM_P1;HPM_P2
2023/07/09 00:01:59;;;;;;;11.90;6.40;;;;;;;;;;5021909;28;20045;-71
2023/07/09 00:04:25;;;;;;;10.75;6.20;;;;;;;;;;5027709;28;20472;-72
2023/07/09 00:06:51;;;;;;;10.32;5.35;;;;;;;;;;5036284;28;20045;-73
2023/07/09 00:09:19;;;;;;;12.98;5.95;;;;;;;;;;5031701;28;20107;-73
2023/07/09 00:11:45;;;;;;;9.85;5.63;;;;;;;;;;5020887;28;20061;-73
2023/07/09 00:14:13;;;;;;;11.23;5.82;;;;;;;;;;5031028;28;20049;-73
2023/07/09 00:16:40;;;;;;;10.75;6.25;;;;;;;;;;5025550;28;20053;-72
2023/07/09 00:19:13;;;;;;;9.52;6.00;;;;;;;;;;5026283;28;20441;-72
2023/07/09 00:21:40;;;;;;;9.85;6.20;;;;;;;;;;5034070;28;20060;-73
2023/07/09 00:24:06;;;;;;;9.88;6.47;;;;;;;;;;5021726;28;20048;-72
2023/07/09 00:26:32;;;;;;;11.68;6.38;;;;;;;;;;5033001;28;20053;-73
2023/07/09 00:28:59;;;;;;;11.77;6.15;;;;;;;;;;5027273;28;20065;-72
2023/07/09 00:31:25;;;;;;;10.98;5.97;;;;;;;;;;4998698;28;20060;-72
2023/07/09 00:33:52;;;;;;;10.38;6.15;;;;;;;;;;5025356;28;20084;-73
2023/07/09 00:36:26;;;;;;;9.02;6.05;;;;;;;;;;5023332;28;20103;-73
2023/07/09 00:38:51;;;;;;;10.40;6.05;;;;;;;;;;5019201;28;20049;-72
2023/07/09 00:41:19;;;;;;;8.65;5.75;;;;;;;;;;5023372;28;20045;-71
2023/07/09 00:43:47;;;;;;;10.93;6.03;;;;;;;;;;5021629;28;20057;-71
2023/07/09 00:46:27;;;;;;;9.90;5.57;;;;;;;;;;5026028;28;20076;-73
2023/07/09 00:48:58;;;;;;;11.65;5.97;;;;;;;;;;5019317;28;20049;-73
2023/07/09 00:51:25;;;;;;;9.73;5.88;;;;;;;;;;5037697;28;20690;-72
2023/07/09 00:53:53;;;;;;;10.35;6.43;;;;;;;;;;5020855;28;20049;-72
2023/07/09 00:56:33;;;;;;;10.38;6.43;;;;;;;;;;5027688;28;20589;-73
2023/07/09 00:59:04;;;;;;;12.25;7.13;;;;;;;;;;5018405;28;20140;-72
2023/07/09 01:01:32;;;;;;;15.05;6.95;;;;;;;;;;5024797;28;20180;-72
2023/07/09 01:04:00;;;;;;;10.32;6.47;;;;;;;;;;5028050;28;20044;-72
2023/07/09 01:06:48;;;;;;;13.35;6.82;;;;;;;;;;5032086;28;20049;-72
2023/07/09 01:09:14;;;;;;;12.15;6.07;;;;;;;;;;5053561;28;20076;-71
2023/07/09 01:11:40;;;;;;;11.20;7.10;;;;;;;;;;5020143;28;20486;-71
2023/07/09 01:14:09;;;;;;;11.57;6.55;;;;;;;;;;5018461;28;20813;-71
2023/07/09 01:16:37;;;;;;;14.95;6.60;;;;;;;;;;5024065;28;20579;-71
2023/07/09 01:19:04;;;;;;;11.80;7.18;;;;;;;;;;5025824;28;20057;-72
2023/07/09 01:21:30;;;;;;;10.35;7.03;;;;;;;;;;5011657;28;20608;-71
2023/07/09 01:23:57;;;;;;;10.82;6.45;;;;;;;;;;5030133;28;20060;-71
2023/07/09 01:26:25;;;;;;;10.25;6.63;;;;;;;;;;5032496;28;20072;-71
2023/07/09 01:28:52;;;;;;;11.07;5.75;;;;;;;;;;5030453;28;20047;-68
2023/07/09 01:31:18;;;;;;;10.63;6.70;;;;;;;;;;5031703;28;20052;-70
2023/07/09 01:33:46;;;;;;;11.60;6.78;;;;;;;;;;5024148;28;20049;-71
2023/07/09 01:36:15;;;;;;;9.20;6.05;;;;;;;;;;5018546;28;20041;-71
2023/07/09 01:38:42;;;;;;;13.10;6.40;;;;;;;;;;5027111;28;20102;-71
2023/07/09 01:41:11;;;;;;;11.15;6.18;;;;;;;;;;5019370;28;20084;-70
2023/07/09 01:43:36;;;;;;;13.38;6.40;;;;;;;;;;5019232;28;20582;-70
2023/07/09 01:46:02;;;;;;;11.15;6.65;;;;;;;;;;5020255;28;20050;-71
2023/07/09 01:48:27;;;;;;;9.10;5.90;;;;;;;;;;5022620;28;20041;-70
2023/07/09 01:50:53;;;;;;;12.48;6.30;;;;;;;;;;4986965;28;20133;-71
2023/07/09 01:53:26;;;;;;;10.25;5.95;;;;;;;;;;5020545;28;20050;-70
2023/07/09 01:55:52;;;;;;;10.50;5.88;;;;;;;;;;5020593;28;20168;-71
2023/07/09 01:58:17;;;;;;;9.73;6.00;;;;;;;;;;5035490;28;20037;-72
2023/07/09 02:00:44;;;;;;;11.77;6.05;;;;;;;;;;5021101;28;20052;-70
2023/07/09 02:03:11;;;;;;;10.15;6.20;;;;;;;;;;5023971;28;20053;-72
2023/07/09 02:05:37;;;;;;;8.23;5.38;;;;;;;;;;5020453;28;20041;-72
2023/07/09 02:08:03;;;;;;;9.25;5.70;;;;;;;;;;5018359;28;20188;-72
2023/07/09 02:10:30;;;;;;;8.95;5.55;;;;;;;;;;5030494;28;20383;-73
2023/07/09 02:12:55;;;;;;;10.48;5.93;;;;;;;;;;5020230;28;20041;-72
2023/07/09 02:15:21;;;;;;;10.20;5.53;;;;;;;;;;5002631;28;20544;-72
2023/07/09 02:17:46;;;;;;;9.02;5.65;;;;;;;;;;5013213;28;20053;-72
2023/07/09 02:20:13;;;;;;;10.15;5.35;;;;;;;;;;5038720;28;20048;-72
2023/07/09 02:22:40;;;;;;;6.35;4.60;;;;;;;;;;5022583;28;20056;-72
2023/07/09 02:25:06;;;;;;;9.57;4.75;;;;;;;;;;5030874;28;20057;-73
2023/07/09 02:27:33;;;;;;;10.30;5.43;;;;;;;;;;5032924;28;20501;-72
2023/07/09 02:29:58;;;;;;;8.45;5.18;;;;;;;;;;5028549;28;20154;-73
2023/07/09 02:32:26;;;;;;;8.52;4.90;;;;;;;;;;5034537;28;20448;-72
2023/07/09 02:34:53;;;;;;;7.57;5.47;;;;;;;;;;5038455;28;20041;-72
2023/07/09 02:37:20;;;;;;;9.10;4.90;;;;;;;;;;5022505;28;20056;-72
2023/07/09 02:39:46;;;;;;;8.52;4.85;;;;;;;;;;5023720;28;20681;-72
2023/07/09 02:42:13;;;;;;;9.18;5.07;;;;;;;;;;5023546;28;20052;-71
2023/07/09 02:44:40;;;;;;;6.32;4.90;;;;;;;;;;5030038;28;20148;-72
2023/07/09 02:47:06;;;;;;;8.98;5.32;;;;;;;;;;5021693;28;20398;-71
2023/07/09 02:49:32;;;;;;;7.80;5.22;;;;;;;;;;5038236;28;20053;-73
2023/07/09 02:51:57;;;;;;;7.65;4.82;;;;;;;;;;5023477;28;20049;-74
2023/07/09 02:54:23;;;;;;;8.63;4.82;;;;;;;;;;5025316;28;20053;-71
2023/07/09 02:56:48;;;;;;;9.15;5.28;;;;;;;;;;5022494;28;20053;-73
2023/07/09 02:59:14;;;;;;;7.03;4.65;;;;;;;;;;5038136;28;20154;-71
2023/07/09 03:01:40;;;;;;;8.43;5.00;;;;;;;;;;5021834;28;20068;-71
2023/07/09 03:04:05;;;;;;;7.40;4.80;;;;;;;;;;5022362;28;20037;-72
2023/07/09 03:06:33;;;;;;;8.88;4.47;;;;;;;;;;5024741;28;20465;-71
2023/07/09 03:09:00;;;;;;;8.13;5.15;;;;;;;;;;5019344;28;20049;-74
2023/07/09 03:11:25;;;;;;;7.28;4.47;;;;;;;;;;5021072;28;20521;-71
2023/07/09 03:13:51;;;;;;;6.07;4.47;;;;;;;;;;5024275;28;20065;-71
2023/07/09 03:16:18;;;;;;;7.10;4.47;;;;;;;;;;5024296;28;20384;-71
2023/07/09 03:18:44;;;;;;;6.78;4.75;;;;;;;;;;5019412;28;20175;-71
2023/07/09 03:21:10;;;;;;;10.98;5.47;;;;;;;;;;5023168;28;20128;-72
2023/07/09 03:23:35;;;;;;;7.68;4.65;;;;;;;;;;5023380;28;20045;-72
2023/07/09 03:26:01;;;;;;;6.00;4.43;;;;;;;;;;5034203;28;20061;-71
2023/07/09 03:28:26;;;;;;;8.30;4.55;;;;;;;;;;5024510;28;20048;-73
2023/07/09 03:30:54;;;;;;;7.90;4.93;;;;;;;;;;5032148;28;20057;-75
2023/07/09 03:33:20;;;;;;;7.88;4.95;;;;;;;;;;5033889;28;20048;-73
2023/07/09 03:35:46;;;;;;;7.07;4.60;;;;;;;;;;5004471;28;20406;-71
2023/07/09 03:38:12;;;;;;;8.70;5.00;;;;;;;;;;5028526;28;20044;-72
2023/07/09 03:40:38;;;;;;;8.18;4.97;;;;;;;;;;5026251;28;20069;-72
2023/07/09 03:43:08;;;;;;;8.73;5.15;;;;;;;;;;5029143;28;20086;-72
2023/07/09 03:45:35;;;;;;;7.70;4.75;;;;;;;;;;5022247;28;20049;-72
2023/07/09 03:48:01;;;;;;;9.85;4.70;;;;;;;;;;5028992;28;20090;-72
2023/07/09 03:50:26;;;;;;;8.43;5.32;;;;;;;;;;5026055;28;20045;-72
2023/07/09 03:52:52;;;;;;;10.23;5.40;;;;;;;;;;5031695;28;20041;-72
2023/07/09 03:55:18;;;;;;;7.13;4.72;;;;;;;;;;5031422;28;20128;-72
2023/07/09 03:57:43;;;;;;;8.43;4.78;;;;;;;;;;5031823;28;20128;-72
2023/07/09 04:00:12;;;;;;;7.05;4.65;;;;;;;;;;5032576;28;20453;-72
2023/07/09 04:02:43;;;;;;;6.63;4.82;;;;;;;;;;5029389;28;20056;-72
2023/07/09 04:05:10;;;;;;;7.88;5.15;;;;;;;;;;5022298;28;20053;-72
2023/07/09 04:07:35;;;;;;;11.05;5.13;;;;;;;;;;5022100;28;20498;-72
2023/07/09 04:10:01;;;;;;;9.57;5.38;;;;;;;;;;5024397;28;20056;-72
2023/07/09 04:12:27;;;;;;;10.32;5.03;;;;;;;;;;5024912;28;20034;-71
2023/07/09 04:14:53;;;;;;;9.02;5.40;;;;;;;;;;5029561;28;20758;-70
2023/07/09 04:17:18;;;;;;;7.00;5.07;;;;;;;;;;5032376;28;20131;-70
2023/07/09 04:19:44;;;;;;;8.77;5.90;;;;;;;;;;5022076;28;20455;-70
2023/07/09 04:22:11;;;;;;;9.45;5.47;;;;;;;;;;5021203;28;20033;-71
2023/07/09 04:24:36;;;;;;;10.18;5.43;;;;;;;;;;5037826;28;20056;-70
2023/07/09 04:27:02;;;;;;;11.00;5.15;;;;;;;;;;5020054;28;20053;-70
2023/07/09 04:29:29;;;;;;;10.93;5.45;;;;;;;;;;5020182;28;20128;-71
2023/07/09 04:31:54;;;;;;;7.65;5.45;;;;;;;;;;5021731;28;20148;-70
2023/07/09 04:34:20;;;;;;;6.90;5.10;;;;;;;;;;5032315;28;20051;-70
2023/07/09 04:36:45;;;;;;;10.57;4.93;;;;;;;;;;5027639;28;20045;-69
2023/07/09 04:39:10;;;;;;;7.35;5.07;;;;;;;;;;5029256;28;20044;-70
2023/07/09 04:41:36;;;;;;;10.07;5.55;;;;;;;;;;5021839;28;20049;-70
2023/07/09 04:44:01;;;;;;;8.60;4.95;;;;;;;;;;5022494;28;20029;-72
2023/07/09 04:46:27;;;;;;;8.07;5.32;;;;;;;;;;5026259;28;20674;-70
2023/07/09 04:48:52;;;;;;;7.10;4.82;;;;;;;;;;5020817;28;20132;-72
2023/07/09 04:51:17;;;;;;;10.23;4.78;;;;;;;;;;5021229;28;20041;-70
2023/07/09 04:53:43;;;;;;;7.78;4.63;;;;;;;;;;5022649;28;20103;-71
2023/07/09 04:56:09;;;;;;;6.53;4.60;;;;;;;;;;5029902;28;20111;-71
2023/07/09 04:58:35;;;;;;;9.13;4.50;;;;;;;;;;5017114;28;20132;-71
2023/07/09 05:01:00;;;;;;;9.23;5.00;;;;;;;;;;5024096;28;20383;-73
2023/07/09 05:03:26;;;;;;;10.10;5.68;;;;;;;;;;5031321;28;20060;-71
2023/07/09 05:05:51;;;;;;;7.40;5.05;;;;;;;;;;5025531;28;20156;-71
2023/07/09 05:08:17;;;;;;;8.18;5.10;;;;;;;;;;5024875;28;20045;-72
2023/07/09 05:10:49;;;;;;;9.23;5.82;;;;;;;;;;5025994;28;20863;-71
2023/07/09 05:13:15;;;;;;;8.40;4.85;;;;;;;;;;5025492;28;20060;-75
2023/07/09 05:15:44;;;;;;;7.95;4.68;;;;;;;;;;5020888;28;20107;-71
2023/07/09 05:18:10;;;;;;;9.68;4.80;;;;;;;;;;5014773;28;20071;-73
2023/07/09 05:20:36;;;;;;;8.13;4.72;;;;;;;;;;5024527;28;20049;-71
2023/07/09 05:23:02;;;;;;;6.35;4.60;;;;;;;;;;5026107;28;20209;-72
2023/07/09 05:25:27;;;;;;;7.90;4.53;;;;;;;;;;5031319;28;20069;-71
2023/07/09 05:27:53;;;;;;;8.98;4.43;;;;;;;;;;5027633;28;20136;-73
2023/07/09 05:30:19;;;;;;;7.18;4.45;;;;;;;;;;5032796;28;20053;-72
2023/07/09 05:32:45;;;;;;;9.77;4.25;;;;;;;;;;5027628;28;20517;-75
2023/07/09 05:35:10;;;;;;;6.15;4.50;;;;;;;;;;5024883;28;20099;-71
2023/07/09 05:37:37;;;;;;;7.60;4.70;;;;;;;;;;5025255;28;20053;-73
2023/07/09 05:40:05;;;;;;;6.55;4.88;;;;;;;;;;5024645;28;20056;-71
2023/07/09 05:42:31;;;;;;;9.82;4.18;;;;;;;;;;5024564;28;20045;-71
2023/07/09 05:44:57;;;;;;;8.20;4.40;;;;;;;;;;5028585;28;20054;-73
2023/07/09 05:47:23;;;;;;;6.47;4.18;;;;;;;;;;5020440;28;20060;-74
2023/07/09 05:49:50;;;;;;;6.20;3.90;;;;;;;;;;5024026;28;20045;-73
2023/07/09 05:52:22;;;;;;;5.97;4.00;;;;;;;;;;5023260;28;20515;-73
2023/07/09 05:54:51;;;;;;;6.28;3.78;;;;;;;;;;5018008;28;20048;-70
2023/07/09 05:57:17;;;;;;;5.53;3.55;;;;;;;;;;5025766;28;20147;-75
2023/07/09 05:59:43;;;;;;;4.72;3.60;;;;;;;;;;5022854;28;20144;-68
2023/07/09 06:02:12;;;;;;;5.70;3.88;;;;;;;;;;5022187;28;20045;-72
2023/07/09 06:04:38;;;;;;;5.70;3.97;;;;;;;;;;5028011;28;20049;-71
2023/07/09 06:07:03;;;;;;;8.52;3.75;;;;;;;;;;5019746;28;20461;-70
2023/07/09 06:09:29;;;;;;;10.13;3.65;;;;;;;;;;5019803;28;20049;-70
2023/07/09 06:11:55;;;;;;;6.78;3.65;;;;;;;;;;5019429;28;20080;-70
2023/07/09 06:14:20;;;;;;;7.35;3.72;;;;;;;;;;5019976;28;20068;-75
2023/07/09 06:16:46;;;;;;;5.68;3.90;;;;;;;;;;5019680;28;20520;-74
2023/07/09 06:19:11;;;;;;;6.85;3.90;;;;;;;;;;5022704;28;20074;-71
2023/07/09 06:21:36;;;;;;;5.18;4.03;;;;;;;;;;5023469;28;20041;-72
2023/07/09 06:24:02;;;;;;;5.35;3.42;;;;;;;;;;5019978;28;20044;-73
2023/07/09 06:26:27;;;;;;;5.22;3.38;;;;;;;;;;5022469;28;20089;-70
2023/07/09 06:28:53;;;;;;;6.93;3.70;;;;;;;;;;5019054;28;20049;-68
2023/07/09 06:31:20;;;;;;;6.53;3.55;;;;;;;;;;5022746;28;21358;-70
2023/07/09 06:33:47;;;;;;;6.18;4.00;;;;;;;;;;5020583;28;20037;-70
2023/07/09 06:36:13;;;;;;;7.55;3.80;;;;;;;;;;5025010;28;20049;-71
2023/07/09 06:38:38;;;;;;;10.05;4.20;;;;;;;;;;5019474;28;20107;-71
2023/07/09 06:41:04;;;;;;;5.32;3.80;;;;;;;;;;5025785;28;20063;-73
2023/07/09 06:43:31;;;;;;;4.43;3.85;;;;;;;;;;5027135;28;20505;-71
2023/07/09 06:46:01;;;;;;;5.70;3.40;;;;;;;;;;5026430;28;20046;-70
2023/07/09 06:48:28;;;;;;;9.25;3.80;;;;;;;;;;5027079;28;20048;-70
2023/07/09 06:50:55;;;;;;;4.53;3.40;;;;;;;;;;5024311;28;20046;-72
2023/07/09 06:53:22;;;;;;;4.70;3.20;;;;;;;;;;5025874;28;20156;-75
2023/07/09 06:55:52;;;;;;;7.50;3.67;;;;;;;;;;5022428;28;20049;-71
2023/07/09 06:58:19;;;;;;;8.13;3.95;;;;;;;;;;5030216;28;20086;-71
2023/07/09 07:00:45;;;;;;;8.85;3.38;;;;;;;;;;5025341;28;20913;-72
2023/07/09 07:03:11;;;;;;;4.88;3.15;;;;;;;;;;5027283;28;20045;-72
2023/07/09 07:05:36;;;;;;;5.60;3.40;;;;;;;;;;5032935;28;20056;-74
2023/07/09 07:08:03;;;;;;;11.07;3.70;;;;;;;;;;5028149;28;20045;-74
2023/07/09 07:10:29;;;;;;;6.72;2.95;;;;;;;;;;5019377;28;20037;-72
2023/07/09 07:12:55;;;;;;;4.13;3.40;;;;;;;;;;5028213;28;20506;-72
2023/07/09 07:15:21;;;;;;;5.18;3.40;;;;;;;;;;5008873;28;20052;-75
2023/07/09 07:17:47;;;;;;;3.92;3.17;;;;;;;;;;5006193;28;20115;-71
2023/07/09 07:20:15;;;;;;;5.45;3.13;;;;;;;;;;5009791;28;20044;-71
2023/07/09 07:22:41;;;;;;;5.03;3.05;;;;;;;;;;5031375;28;20048;-74
2023/07/09 07:25:07;;;;;;;2.97;2.60;;;;;;;;;;5032591;28;20065;-71
2023/07/09 07:27:34;;;;;;;4.72;2.92;;;;;;;;;;5033851;28;20072;-71
2023/07/09 07:30:00;;;;;;;4.57;3.05;;;;;;;;;;5016229;28;20056;-75
2023/07/09 07:32:26;;;;;;;4.30;2.85;;;;;;;;;;5019234;28;20922;-73
2023/07/09 07:34:52;;;;;;;6.18;2.70;;;;;;;;;;5033176;28;20048;-72
2023/07/09 07:37:20;;;;;;;10.10;3.30;;;;;;;;;;5027415;28;20056;-71
2023/07/09 07:39:46;;;;;;;3.42;2.83;;;;;;;;;;5007678;28;20052;-72
2023/07/09 07:42:12;;;;;;;2.85;2.58;;;;;;;;;;5031674;28;20421;-71
2023/07/09 07:44:37;;;;;;;5.82;3.05;;;;;;;;;;5029198;28;20049;-74
2023/07/09 07:47:03;;;;;;;3.15;2.60;;;;;;;;;;5029765;28;20060;-71
2023/07/09 07:49:29;;;;;;;5.78;3.00;;;;;;;;;;5022281;28;20864;-70
2023/07/09 07:51:55;;;;;;;7.85;2.90;;;;;;;;;;5025979;28;20045;-72
2023/07/09 07:54:21;;;;;;;7.43;2.70;;;;;;;;;;5026123;28;20060;-75
2023/07/09 07:56:46;;;;;;;5.13;2.95;;;;;;;;;;5021251;28;20041;-73
2023/07/09 07:59:12;;;;;;;5.22;2.70;;;;;;;;;;5018638;28;20792;-71
2023/07/09 08:01:37;;;;;;;4.50;2.80;;;;;;;;;;5021947;28;20045;-71
2023/07/09 08:04:03;;;;;;;3.65;2.92;;;;;;;;;;5029723;28;20056;-75
2023/07/09 08:06:30;;;;;;;6.63;2.70;;;;;;;;;;5029731;28;20943;-74
2023/07/09 08:08:55;;;;;;;8.02;2.60;;;;;;;;;;5025232;28;20118;-70
2023/07/09 08:11:20;;;;;;;3.40;2.60;;;;;;;;;;5020477;28;20735;-75
2023/07/09 08:13:46;;;;;;;5.18;2.70;;;;;;;;;;5019702;28;20038;-70
2023/07/09 08:16:11;;;;;;;4.55;2.70;;;;;;;;;;5027506;28;20056;-75
2023/07/09 08:18:37;;;;;;;13.52;3.25;;;;;;;;;;5019831;28;20057;-71
2023/07/09 08:21:03;;;;;;;3.42;3.08;;;;;;;;;;5027199;28;20045;-73
2023/07/09 08:23:29;;;;;;;4.60;2.80;;;;;;;;;;5026760;28;20060;-74
2023/07/09 08:25:56;;;;;;;3.40;2.60;;;;;;;;;;5022893;28;20140;-71
2023/07/09 08:28:21;;;;;;;4.55;3.20;;;;;;;;;;5023518;28;20041;-75
2023/07/09 08:30:47;;;;;;;4.40;2.85;;;;;;;;;;5025983;28;20052;-72
2023/07/09 08:33:13;;;;;;;5.07;2.92;;;;;;;;;;5032745;28;20131;-70
2023/07/09 08:35:38;;;;;;;7.30;2.88;;;;;;;;;;5014087;28;20128;-73
2023/07/09 08:38:04;;;;;;;3.88;2.85;;;;;;;;;;5031355;28;20434;-71
2023/07/09 08:40:30;;;;;;;4.32;2.72;;;;;;;;;;5022952;28;20049;-72
2023/07/09 08:43:05;;;;;;;3.55;2.50;;;;;;;;;;5027653;28;20052;-74
2023/07/09 08:45:59;;;;;;;3.42;3.13;;;;;;;;;;5028680;28;20132;-76
2023/07/09 08:48:31;;;;;;;3.60;2.60;;;;;;;;;;5030105;28;20131;-76
2023/07/09 08:51:24;;;;;;;6.35;3.03;;;;;;;;;;5030617;28;20056;-73
2023/07/09 08:53:59;;;;;;;5.93;2.55;;;;;;;;;;5027375;28;20511;-71
2023/07/09 08:56:28;;;;;;;7.97;2.85;;;;;;;;;;5032228;28;20128;-77
2023/07/09 08:58:56;;;;;;;3.80;2.92;;;;;;;;;;5026752;28;20068;-73
2023/07/09 09:01:32;;;;;;;6.60;2.80;;;;;;;;;;5024765;28;20072;-72
2023/07/09 09:04:07;;;;;;;5.43;2.70;;;;;;;;;;5023785;28;20495;-71
2023/07/09 09:06:35;;;;;;;2.95;2.55;;;;;;;;;;5029886;28;20057;-71
2023/07/09 09:09:15;;;;;;;3.42;2.58;;;;;;;;;;5026042;28;20089;-72
2023/07/09 09:11:48;;;;;;;3.85;2.88;;;;;;;;;;5030006;28;20140;-70
2023/07/09 09:14:39;;;;;;;2.80;2.60;;;;;;;;;;5026648;28;20045;-71
2023/07/09 09:17:14;;;;;;;7.57;2.70;;;;;;;;;;5018699;28;20511;-71
2023/07/09 09:19:46;;;;;;;3.67;2.78;;;;;;;;;;5016825;28;20076;-72
2023/07/09 09:22:15;;;;;;;4.88;2.90;;;;;;;;;;5023868;28;20045;-70
2023/07/09 09:24:58;;;;;;;4.05;2.60;;;;;;;;;;5024279;28;20072;-71
2023/07/09 09:27:23;;;;;;;6.47;2.45;;;;;;;;;;5030890;28;20041;-73
2023/07/09 09:29:49;;;;;;;4.63;2.63;;;;;;;;;;5023104;28;20052;-71
2023/07/09 09:32:22;;;;;;;5.90;2.28;;;;;;;;;;5020368;28;20048;-71
2023/07/09 09:34:48;;;;;;;3.55;2.50;;;;;;;;;;5019967;28;20045;-71
2023/07/09 09:37:29;;;;;;;3.00;2.70;;;;;;;;;;5020645;28;20106;-71
2023/07/09 09:39:55;;;;;;;5.35;2.63;;;;;;;;;;5022502;28;20045;-71
2023/07/09 09:42:22;;;;;;;4.50;2.45;;;;;;;;;;5019765;28;20056;-72
2023/07/09 09:44:48;;;;;;;3.38;2.67;;;;;;;;;;5028193;28;21077;-71
2023/07/09 09:47:15;;;;;;;5.18;2.60;;;;;;;;;;5031604;28;20037;-72
2023/07/09 09:49:41;;;;;;;8.15;2.80;;;;;;;;;;5028505;28;20099;-75
2023/07/09 09:52:13;;;;;;;2.97;2.45;;;;;;;;;;5023742;28;20132;-73
2023/07/09 09:54:41;;;;;;;3.28;2.42;;;;;;;;;;5025290;28;20081;-71
2023/07/09 09:57:17;;;;;;;4.03;2.13;;;;;;;;;;5025517;28;20103;-73
2023/07/09 09:59:46;;;;;;;3.97;2.70;;;;;;;;;;5027032;28;20053;-73
2023/07/09 10:02:23;;;;;;;3.42;2.60;;;;;;;;;;5024799;28;20057;-73
2023/07/09 10:04:49;;;;;;;4.72;2.17;;;;;;;;;;5024811;28;20056;-74
2023/07/09 10:07:23;;;;;;;2.35;2.15;;;;;;;;;;5027307;28;20056;-76
2023/07/09 10:09:54;;;;;;;3.40;2.30;;;;;;;;;;5025620;28;20755;-71
2023/07/09 10:12:56;;;;;;;3.25;2.30;;;;;;;;;;5032185;28;20076;-72
2023/07/09 10:15:39;;;;;;;3.15;2.08;;;;;;;;;;5036511;28;20037;-72
2023/07/09 10:18:30;;;;;;;4.15;2.22;;;;;;;;;;5021804;28;20049;-72
2023/07/09 10:21:06;;;;;;;2.10;1.90;;;;;;;;;;5019013;28;20041;-75
2023/07/09 10:23:55;;;;;;;4.05;2.20;;;;;;;;;;5024306;28;20045;-77
2023/07/09 10:26:32;;;;;;;3.33;2.35;;;;;;;;;;5020489;28;20049;-75
2023/07/09 10:29:18;;;;;;;2.47;1.83;;;;;;;;;;5017886;28;20479;-73
2023/07/09 10:31:55;;;;;;;3.72;1.90;;;;;;;;;;5017626;28;20092;-70
2023/07/09 10:34:34;;;;;;;4.80;2.30;;;;;;;;;;5024484;28;20864;-70
2023/07/09 10:37:31;;;;;;;3.20;2.08;;;;;;;;;;5020329;28;20890;-70
2023/07/09 10:39:58;;;;;;;2.58;2.33;;;;;;;;;;5023370;28;20049;-72
2023/07/09 10:42:29;;;;;;;3.83;2.60;;;;;;;;;;5022070;28;20045;-71
2023/07/09 10:45:11;;;;;;;3.22;2.20;;;;;;;;;;5019177;28;20053;-73
2023/07/09 10:47:42;;;;;;;4.00;2.80;;;;;;;;;;5020218;28;20384;-71
2023/07/09 10:50:18;;;;;;;2.70;2.50;;;;;;;;;;5021123;28;20056;-74
2023/07/09 10:52:47;;;;;;;3.42;2.58;;;;;;;;;;5027304;28;20041;-75
2023/07/09 10:55:28;;;;;;;6.80;2.40;;;;;;;;;;5029285;28;20414;-73
2023/07/09 10:58:11;;;;;;;2.53;2.20;;;;;;;;;;5024402;28;20080;-73
2023/07/09 11:00:39;;;;;;;5.53;2.45;;;;;;;;;;5025859;28;20049;-72
2023/07/09 11:03:23;;;;;;;5.18;2.08;;;;;;;;;;5025862;28;20049;-75
2023/07/09 11:05:50;;;;;;;3.25;2.25;;;;;;;;;;5021747;28;20053;-73
2023/07/09 11:08:23;;;;;;;3.78;2.10;;;;;;;;;;5020736;28;20061;-76
2023/07/09 11:10:58;;;;;;;4.70;2.20;;;;;;;;;;5020795;28;20042;-71
2023/07/09 11:13:39;;;;;;;3.90;2.60;;;;;;;;;;5021896;28;21059;-71
2023/07/09 11:16:06;;;;;;;4.15;2.20;;;;;;;;;;5021559;28;20060;-74
2023/07/09 11:18:37;;;;;;;4.43;2.53;;;;;;;;;;5020026;28;20128;-76
2023/07/09 11:21:13;;;;;;;3.30;2.50;;;;;;;;;;5024877;28;20049;-74
2023/07/09 11:23:59;;;;;;;2.90;2.33;;;;;;;;;;5029860;28;20041;-72
2023/07/09 11:26:29;;;;;;;2.85;2.00;;;;;;;;;;5032459;28;20107;-73
2023/07/09 11:29:18;;;;;;;5.57;2.15;;;;;;;;;;5025809;28;20072;-73
2023/07/09 11:31:47;;;;;;;3.35;1.85;;;;;;;;;;5025255;28;20056;-71
2023/07/09 11:34:12;;;;;;;2.38;1.80;;;;;;;;;;5020884;28;20049;-72
2023/07/09 11:36:59;;;;;;;4.85;2.05;;;;;;;;;;5020907;28;20052;-72
2023/07/09 11:39:41;;;;;;;4.80;2.40;;;;;;;;;;5036009;28;20045;-72
2023/07/09 11:42:25;;;;;;;4.75;2.45;;;;;;;;;;5026660;28;20053;-72
2023/07/09 11:44:57;;;;;;;4.03;2.22;;;;;;;;;;5030273;28;20077;-72
2023/07/09 11:47:26;;;;;;;4.85;2.30;;;;;;;;;;5022805;28;20753;-72
2023/07/09 11:50:10;;;;;;;3.45;1.85;;;;;;;;;;5022429;28;20182;-72
2023/07/09 11:52:47;;;;;;;3.30;2.10;;;;;;;;;;5003439;28;20057;-72
2023/07/09 11:55:31;;;;;;;2.58;2.00;;;;;;;;;;5022324;28;20448;-72
2023/07/09 11:58:01;;;;;;;2.40;2.20;;;;;;;;;;5022262;28;20053;-72
2023/07/09 12:00:38;;;;;;;4.20;1.87;;;;;;;;;;5020736;28;20041;-72
2023/07/09 12:03:05;;;;;;;3.97;2.05;;;;;;;;;;5021778;28;20142;-71
2023/07/09 12:05:31;;;;;;;2.78;1.98;;;;;;;;;;5032564;28;20045;-72
2023/07/09 12:07:58;;;;;;;2.70;2.00;;;;;;;;;;5031056;28;20103;-73
2023/07/09 12:10:26;;;;;;;5.18;2.30;;;;;;;;;;5020880;28;20053;-70
2023/07/09 12:12:57;;;;;;;3.35;2.00;;;;;;;;;;4994169;28;20059;-69
2023/07/09 12:15:25;;;;;;;2.10;1.90;;;;;;;;;;5027581;28;21018;-71
2023/07/09 12:18:00;;;;;;;2.28;2.00;;;;;;;;;;5022021;28;20041;-73
2023/07/09 12:20:35;;;;;;;3.33;2.05;;;;;;;;;;5022081;28;20395;-70
2023/07/09 12:23:10;;;;;;;3.45;2.20;;;;;;;;;;5021890;28;20045;-72
2023/07/09 12:25:35;;;;;;;2.33;2.13;;;;;;;;;;5025942;28;20160;-71
2023/07/09 12:28:01;;;;;;;2.60;2.13;;;;;;;;;;5027247;28;20133;-70
2023/07/09 12:30:32;;;;;;;6.03;2.10;;;;;;;;;;5029975;28;20046;-69
2023/07/09 12:32:57;;;;;;;3.38;2.53;;;;;;;;;;5024215;28;20147;-69
2023/07/09 12:35:23;;;;;;;4.25;2.40;;;;;;;;;;5022262;28;21307;-69
2023/07/09 12:37:52;;;;;;;2.58;2.20;;;;;;;;;;5013197;28;20052;-70
2023/07/09 12:40:22;;;;;;;3.25;2.30;;;;;;;;;;5021649;28;20171;-70
2023/07/09 12:42:48;;;;;;;2.33;2.05;;;;;;;;;;5025536;28;20126;-70
2023/07/09 12:45:20;;;;;;;3.30;2.42;;;;;;;;;;5021762;28;20068;-70
2023/07/09 12:47:48;;;;;;;3.92;2.17;;;;;;;;;;5022196;28;20129;-71
2023/07/09 12:50:34;;;;;;;2.05;1.85;;;;;;;;;;5022009;28;20049;-70
2023/07/09 12:53:13;;;;;;;4.03;2.45;;;;;;;;;;5021034;28;20060;-69
2023/07/09 12:55:41;;;;;;;2.42;1.83;;;;;;;;;;5021541;28;20099;-69
2023/07/09 12:58:10;;;;;;;3.33;1.90;;;;;;;;;;5020675;28;20064;-70
2023/07/09 13:00:36;;;;;;;2.60;1.88;;;;;;;;;;5020754;28;20049;-70
2023/07/09 13:03:02;;;;;;;2.75;2.20;;;;;;;;;;5019624;28;20533;-70
2023/07/09 13:05:27;;;;;;;2.33;2.05;;;;;;;;;;5020898;28;20560;-70
2023/07/09 13:07:59;;;;;;;3.55;2.35;;;;;;;;;;5020746;28;20049;-70
2023/07/09 13:10:30;;;;;;;4.45;2.35;;;;;;;;;;5019870;28;20049;-69
2023/07/09 13:13:01;;;;;;;3.78;1.98;;;;;;;;;;5020274;28;20588;-70
2023/07/09 13:15:29;;;;;;;3.05;2.20;;;;;;;;;;5020844;28;20149;-70
2023/07/09 13:18:00;;;;;;;3.40;1.98;;;;;;;;;;5020649;28;20111;-70
2023/07/09 13:20:26;;;;;;;2.15;1.95;;;;;;;;;;5021400;28;20049;-70
2023/07/09 13:22:51;;;;;;;4.53;2.05;;;;;;;;;;5031762;28;20094;-70
2023/07/09 13:25:17;;;;;;;3.38;2.00;;;;;;;;;;5021032;28;20687;-70
2023/07/09 13:27:43;;;;;;;4.00;2.35;;;;;;;;;;5020777;28;20049;-69
2023/07/09 13:30:09;;;;;;;2.92;1.92;;;;;;;;;;5020728;28;20045;-70
2023/07/09 13:32:34;;;;;;;2.58;2.00;;;;;;;;;;5019394;28;20529;-70
2023/07/09 13:35:00;;;;;;;7.68;2.20;;;;;;;;;;5019875;28;20053;-70
2023/07/09 13:37:25;;;;;;;2.22;1.75;;;;;;;;;;5020897;28;20045;-70
2023/07/09 13:39:50;;;;;;;5.03;2.10;;;;;;;;;;5020440;28;20519;-69
2023/07/09 13:42:17;;;;;;;3.28;2.00;;;;;;;;;;5019813;28;20048;-70
2023/07/09 13:44:45;;;;;;;3.22;2.47;;;;;;;;;;5018149;28;20248;-69
2023/07/09 13:47:16;;;;;;;3.78;2.03;;;;;;;;;;5018348;28;20114;-70
2023/07/09 13:49:43;;;;;;;3.10;2.20;;;;;;;;;;5016966;28;20041;-70
2023/07/09 13:52:19;;;;;;;3.03;1.90;;;;;;;;;;5017946;28;20067;-70
2023/07/09 13:54:49;;;;;;;3.67;1.80;;;;;;;;;;5019928;28;20057;-71
2023/07/09 13:57:19;;;;;;;4.72;1.67;;;;;;;;;;5018968;28;20560;-70
2023/07/09 13:59:46;;;;;;;3.88;2.10;;;;;;;;;;5018151;28;20045;-70
2023/07/09 14:02:31;;;;;;;2.90;2.00;;;;;;;;;;5018293;28;20045;-71
2023/07/09 14:04:57;;;;;;;6.85;2.30;;;;;;;;;;5016406;28;20049;-70
2023/07/09 14:07:32;;;;;;;3.70;2.25;;;;;;;;;;5019111;28;20186;-69
2023/07/09 14:09:59;;;;;;;5.20;2.00;;;;;;;;;;5018411;28;20063;-70
2023/07/09 14:12:26;;;;;;;4.20;2.10;;;;;;;;;;5018764;28;20095;-70
2023/07/09 14:14:53;;;;;;;2.35;1.80;;;;;;;;;;5020046;28;20566;-70
2023/07/09 14:17:19;;;;;;;2.90;2.15;;;;;;;;;;5023098;28;20046;-70
2023/07/09 14:19:45;;;;;;;2.83;2.00;;;;;;;;;;5017950;28;20075;-69
2023/07/09 14:22:32;;;;;;;3.70;2.03;;;;;;;;;;5018129;28;20061;-70
2023/07/09 14:24:58;;;;;;;5.00;1.98;;;;;;;;;;5017911;28;20051;-70
2023/07/09 14:27:24;;;;;;;3.90;2.15;;;;;;;;;;5021922;28;20049;-70
2023/07/09 14:29:50;;;;;;;4.35;1.85;;;;;;;;;;5017688;28;20131;-70
2023/07/09 14:32:33;;;;;;;4.70;2.00;;;;;;;;;;5018533;28;20296;-70
2023/07/09 14:35:00;;;;;;;2.60;1.80;;;;;;;;;;5018118;28;20073;-69
2023/07/09 14:37:26;;;;;;;5.60;2.20;;;;;;;;;;5015749;28;20049;-70
2023/07/09 14:39:52;;;;;;;2.95;1.95;;;;;;;;;;5018042;28;20480;-69
2023/07/09 14:42:18;;;;;;;2.38;1.88;;;;;;;;;;5018281;28;20052;-69
2023/07/09 14:44:43;;;;;;;3.97;2.00;;;;;;;;;;5018175;28;20049;-70
2023/07/09 14:47:35;;;;;;;3.63;1.90;;;;;;;;;;5025754;28;20053;-70
2023/07/09 14:50:00;;;;;;;3.13;1.85;;;;;;;;;;5021768;28;21084;-70
2023/07/09 14:52:26;;;;;;;3.20;1.63;;;;;;;;;;5018531;28;20155;-70